Terminal Aerodrome Forecast
Issued by NWS North Platte, NE

Home | Current Version | Previous Version | Text Only | Print | Product List | Glossary On
Versions: 1 2 3 4 5 6 7 8 9 10 11 12 13
000
FTUS43 KLBF 301720
TAFLBF
TAF
KLBF 301720Z 3018/0118 15011KT P6SM BKN250
     FM010000 13007KT P6SM BKN200
     FM011500 16008KT P6SM BKN200=

USA.gov is the U.S. government's official web portal to all federal, state and local government web resources and services.